createdAt,value
2023-05-17T00:00:30.420Z,85.80
2023-05-17T00:01:33.112Z,85.90
2023-05-17T00:02:37.214Z,85.90
2023-05-17T00:03:41.361Z,85.90
2023-05-17T00:04:45.478Z,85.80
2023-05-17T00:05:49.714Z,85.80
2023-05-17T00:06:52.696Z,85.80
2023-05-17T00:07:56.479Z,85.90
2023-05-17T00:08:59.438Z,85.80
2023-05-17T00:10:04.757Z,85.80
2023-05-17T00:11:07.531Z,85.80
2023-05-17T00:12:11.725Z,85.70
2023-05-17T00:13:21.217Z,85.80
2023-05-17T00:14:37.256Z,85.70
2023-05-17T00:15:40.981Z,85.70
2023-05-17T00:16:47.888Z,85.70
2023-05-17T00:17:51.421Z,85.60
2023-05-17T00:18:55.954Z,85.60
2023-05-17T00:19:59.070Z,85.60
2023-05-17T00:21:03.472Z,85.60
2023-05-17T00:22:06.507Z,85.60
2023-05-17T00:23:10.590Z,85.60
2023-05-17T00:24:13.772Z,85.70
2023-05-17T00:25:19.051Z,85.70
2023-05-17T00:26:22.166Z,85.70
2023-05-17T00:27:26.024Z,85.80
2023-05-17T00:28:28.993Z,85.80
2023-05-17T00:29:33.793Z,85.80
2023-05-17T00:30:36.822Z,85.90
2023-05-17T00:31:41.317Z,85.90
2023-05-17T00:32:45.747Z,85.90
2023-05-17T00:33:49.543Z,86.00
2023-05-17T00:34:52.494Z,86.10
2023-05-17T00:35:59.767Z,86.10
2023-05-17T00:37:02.406Z,86.10
2023-05-17T00:38:06.257Z,86.20
2023-05-17T00:39:09.155Z,86.20
2023-05-17T00:40:15.401Z,86.30
2023-05-17T00:41:19.499Z,86.40
2023-05-17T00:42:23.521Z,86.40
2023-05-17T00:43:26.498Z,86.40
2023-05-17T00:44:30.283Z,86.50
2023-05-17T00:45:34.357Z,86.50
2023-05-17T00:46:38.561Z,86.60
2023-05-17T00:47:42.962Z,86.70
2023-05-17T00:48:46.103Z,86.70
2023-05-17T00:49:50.288Z,86.80
2023-05-17T00:50:54.080Z,86.80
2023-05-17T00:52:05.521Z,86.80
2023-05-17T00:53:09.558Z,86.80
2023-05-17T00:54:13.843Z,86.90
2023-05-17T00:55:16.842Z,86.90
2023-05-17T00:56:22.571Z,86.90
2023-05-17T00:57:25.983Z,87.00
2023-05-17T00:58:30.749Z,87.10
2023-05-17T00:59:34.068Z,87.10
2023-05-17T01:00:39.497Z,87.10
2023-05-17T01:01:43.685Z,87.10
2023-05-17T01:02:49.834Z,87.20
2023-05-17T01:03:53.065Z,87.20
2023-05-17T01:04:58.945Z,87.30
2023-05-17T01:06:05.248Z,87.30
2023-05-17T01:07:12.111Z,87.50
2023-05-17T01:08:16.850Z,87.50
2023-05-17T01:09:20.988Z,87.50
2023-05-17T01:10:31.603Z,87.60
2023-05-17T01:11:50.474Z,87.60
2023-05-17T01:13:04.132Z,87.60
2023-05-17T01:14:28.261Z,87.60
2023-05-17T01:15:39.341Z,87.80
2023-05-17T01:16:51.157Z,87.80
2023-05-17T01:18:08.711Z,87.80
2023-05-17T01:19:35.174Z,87.80
2023-05-17T01:20:43.785Z,87.90
2023-05-17T01:22:07.374Z,88.00
2023-05-17T01:23:33.040Z,88.10
2023-05-17T01:24:59.778Z,88.10
2023-05-17T01:26:09.656Z,88.00
2023-05-17T01:27:16.113Z,87.90
2023-05-17T01:28:21.797Z,88.00
2023-05-17T01:29:28.410Z,88.00
2023-05-17T01:30:39.226Z,88.00
2023-05-17T01:31:44.053Z,88.10
2023-05-17T01:32:48.238Z,88.30
2023-05-17T01:33:51.854Z,88.10
2023-05-17T01:34:56.160Z,88.30
2023-05-17T01:36:03.398Z,88.30
2023-05-17T01:37:08.445Z,88.30
2023-05-17T01:38:13.323Z,88.30
2023-05-17T01:39:16.863Z,88.60
2023-05-17T01:40:21.662Z,88.60
2023-05-17T01:41:34.380Z,88.50
2023-05-17T01:42:43.106Z,88.50
2023-05-17T01:43:54.282Z,88.50
2023-05-17T01:45:07.776Z,88.50
2023-05-17T01:46:19.390Z,88.50
2023-05-17T01:47:32.193Z,88.50
2023-05-17T01:48:41.116Z,88.50
2023-05-17T01:49:49.578Z,88.50
2023-05-17T01:50:55.102Z,88.50
2023-05-17T01:52:13.749Z,88.40
2023-05-17T01:53:26.651Z,88.50
2023-05-17T01:54:38.438Z,88.50
2023-05-17T01:55:53.808Z,88.40
2023-05-17T01:57:02.819Z,88.50
2023-05-17T01:58:10.309Z,88.50
2023-05-17T01:59:23.280Z,88.50
2023-05-17T02:00:27.500Z,88.50
2023-05-17T02:01:33.783Z,88.50
2023-05-17T02:02:37.837Z,88.50
2023-05-17T02:03:42.336Z,88.60
2023-05-17T02:04:45.378Z,88.60
2023-05-17T02:05:49.982Z,88.50
2023-05-17T02:06:53.033Z,88.50
2023-05-17T02:07:57.255Z,88.40
2023-05-17T02:09:02.853Z,88.40
2023-05-17T02:10:09.620Z,88.40
2023-05-17T02:11:17.593Z,88.40
2023-05-17T02:12:21.755Z,88.40
2023-05-17T02:13:26.338Z,88.30
2023-05-17T02:14:32.007Z,88.30
2023-05-17T02:15:35.829Z,88.30
2023-05-17T02:16:40.293Z,88.30
2023-05-17T02:17:43.957Z,88.30
2023-05-17T02:18:48.300Z,88.30
2023-05-17T02:19:51.730Z,88.30
2023-05-17T02:20:55.945Z,88.30
2023-05-17T02:21:59.191Z,88.30
2023-05-17T02:23:03.573Z,88.40
2023-05-17T02:24:07.591Z,88.40
2023-05-17T02:25:12.037Z,88.50
2023-05-17T02:26:16.354Z,88.50
2023-05-17T02:29:09.509Z,88.50
2023-05-17T02:30:15.795Z,88.50
2023-05-17T02:31:21.866Z,88.50
2023-05-17T02:32:26.502Z,88.50
2023-05-17T02:33:31.323Z,88.30
2023-05-17T02:34:34.399Z,88.30
2023-05-17T02:35:38.790Z,88.30
2023-05-17T02:36:41.672Z,88.30
2023-05-17T02:37:45.917Z,88.50
2023-05-17T02:38:51.134Z,88.30
2023-05-17T02:39:55.754Z,88.30
2023-05-17T02:40:58.727Z,88.30
2023-05-17T02:42:02.746Z,88.30
2023-05-17T02:43:05.409Z,88.50
2023-05-17T02:44:14.729Z,88.50
2023-05-17T02:45:17.707Z,88.50
2023-05-17T02:46:23.117Z,88.60
2023-05-17T02:47:29.588Z,88.50
2023-05-17T02:48:33.805Z,88.50
2023-05-17T02:49:36.857Z,88.30
2023-05-17T02:50:41.270Z,88.30
2023-05-17T02:51:44.028Z,88.30
2023-05-17T02:52:47.705Z,88.30
2023-05-17T02:53:50.807Z,88.30
2023-05-17T02:54:57.792Z,88.40
2023-05-17T02:56:03.427Z,88.30
2023-05-17T02:57:07.846Z,88.30
2023-05-17T02:58:11.594Z,88.40
2023-05-17T02:59:17.021Z,88.40
2023-05-17T03:00:20.923Z,88.40
2023-05-17T03:01:24.775Z,88.30
2023-05-17T03:02:29.785Z,88.40
2023-05-17T03:03:33.846Z,88.40
2023-05-17T03:04:38.144Z,88.40
2023-05-17T03:05:42.114Z,88.40
2023-05-17T03:06:45.056Z,88.40
2023-05-17T03:07:48.991Z,88.50
2023-05-17T03:08:52.004Z,88.60
2023-05-17T03:09:56.099Z,88.60
2023-05-17T03:11:01.841Z,88.70
2023-05-17T03:12:07.121Z,88.70
2023-05-17T03:13:11.312Z,88.70
2023-05-17T03:14:18.283Z,88.80
2023-05-17T03:15:21.143Z,88.80
2023-05-17T03:16:24.961Z,88.90
2023-05-17T03:17:28.591Z,88.90
2023-05-17T03:18:36.352Z,89.00
2023-05-17T03:19:39.760Z,89.00
2023-05-17T03:20:44.174Z,89.00
2023-05-17T03:21:47.224Z,89.10
2023-05-17T03:22:51.548Z,89.10
2023-05-17T03:23:54.717Z,89.20
2023-05-17T03:24:59.808Z,89.20
2023-05-17T03:26:02.811Z,89.20
2023-05-17T03:27:11.004Z,89.30
2023-05-17T03:28:14.233Z,89.40
2023-05-17T03:29:19.411Z,89.50
2023-05-17T03:30:22.046Z,89.60
2023-05-17T03:31:26.674Z,89.60
2023-05-17T03:32:29.996Z,89.60
2023-05-17T03:33:36.616Z,89.60
2023-05-17T03:34:40.122Z,89.60
2023-05-17T03:35:44.038Z,89.60
2023-05-17T03:36:47.835Z,89.70
2023-05-17T03:37:50.799Z,89.70
2023-05-17T03:38:56.965Z,89.70
2023-05-17T03:40:05.358Z,89.80
2023-05-17T03:41:20.537Z,89.70
2023-05-17T03:42:30.893Z,89.70
2023-05-17T03:43:37.915Z,89.60
2023-05-17T03:44:43.193Z,89.50
2023-05-17T03:45:48.525Z,89.40
2023-05-17T03:46:54.466Z,89.40
2023-05-17T03:47:59.933Z,89.30
2023-05-17T03:49:03.958Z,89.30
2023-05-17T03:50:11.174Z,89.20
2023-05-17T03:51:13.956Z,89.20
2023-05-17T03:52:18.006Z,89.10
2023-05-17T03:53:21.252Z,89.10
2023-05-17T03:54:25.135Z,89.10
2023-05-17T03:55:28.160Z,89.00
2023-05-17T03:56:32.689Z,88.90
2023-05-17T03:57:35.371Z,88.90
2023-05-17T03:58:39.408Z,88.70
2023-05-17T03:59:44.684Z,88.90
2023-05-17T04:00:48.101Z,88.80
2023-05-17T04:01:55.357Z,88.80
2023-05-17T04:02:58.274Z,88.70
2023-05-17T04:04:04.591Z,88.70
2023-05-17T04:05:08.804Z,88.60
2023-05-17T04:06:12.606Z,88.60
2023-05-17T04:07:15.846Z,88.60
2023-05-17T04:08:19.891Z,88.50
2023-05-17T04:09:22.455Z,88.50
2023-05-17T04:10:28.978Z,88.50
2023-05-17T04:11:33.244Z,88.30
2023-05-17T04:12:37.513Z,88.30
2023-05-17T04:13:40.738Z,88.30
2023-05-17T04:14:46.007Z,88.30
2023-05-17T04:15:49.353Z,88.10
2023-05-17T04:16:53.167Z,88.10
2023-05-17T04:17:56.382Z,88.00
2023-05-17T04:19:02.293Z,88.00
2023-05-17T04:20:09.754Z,87.90
2023-05-17T04:21:36.008Z,87.90
2023-05-17T04:23:06.938Z,87.90
2023-05-17T04:24:39.101Z,87.80
2023-05-17T04:26:04.338Z,87.80
2023-05-17T04:27:16.189Z,87.80
2023-05-17T04:28:33.135Z,87.80
2023-05-17T04:29:41.672Z,87.80
2023-05-17T04:31:25.709Z,87.80
2023-05-17T04:32:39.317Z,87.90
2023-05-17T04:33:49.811Z,87.90
2023-05-17T04:35:01.258Z,87.90
2023-05-17T04:36:12.971Z,87.90
2023-05-17T04:37:28.841Z,87.90
2023-05-17T04:38:36.380Z,87.80
2023-05-17T04:39:42.069Z,87.80
2023-05-17T04:40:45.831Z,87.60
2023-05-17T04:41:50.409Z,87.50
2023-05-17T04:42:55.628Z,87.40
2023-05-17T04:43:59.070Z,87.30
2023-05-17T04:45:10.619Z,87.20
2023-05-17T04:46:15.159Z,87.00
2023-05-17T04:47:20.096Z,86.90
2023-05-17T04:48:23.602Z,86.90
2023-05-17T04:49:31.793Z,86.80
2023-05-17T04:50:35.025Z,86.70
2023-05-17T04:51:39.303Z,86.40
2023-05-17T04:52:42.626Z,86.30
2023-05-17T04:53:47.821Z,86.20
2023-05-17T04:54:53.735Z,86.10
2023-05-17T04:55:59.202Z,85.90
2023-05-17T04:57:03.861Z,85.80
2023-05-17T04:58:28.633Z,85.70
2023-05-17T04:59:34.814Z,85.50
2023-05-17T05:00:39.290Z,85.30
2023-05-17T05:01:45.054Z,85.20
2023-05-17T05:02:49.188Z,85.00
2023-05-17T05:03:52.675Z,84.70
2023-05-17T05:04:57.182Z,84.50
2023-05-17T05:06:00.532Z,84.40
2023-05-17T05:11:14.854Z,83.50
2023-05-17T05:18:53.383Z,81.90
2023-05-17T05:19:56.729Z,81.50
2023-05-17T05:21:01.035Z,81.50
2023-05-17T05:22:03.911Z,81.60
2023-05-17T05:23:09.580Z,81.60
2023-05-17T05:24:14.151Z,81.50
2023-05-17T05:25:18.243Z,81.40
2023-05-17T05:26:21.165Z,81.40
2023-05-17T05:27:26.480Z,81.30
2023-05-17T05:28:31.104Z,81.00
2023-05-17T05:29:37.122Z,80.70
2023-05-17T05:30:41.891Z,80.40
2023-05-17T05:31:47.689Z,80.30
2023-05-17T05:32:54.833Z,80.00
2023-05-17T05:33:59.385Z,79.70
2023-05-17T05:35:03.441Z,79.60
2023-05-17T05:36:08.307Z,79.40
2023-05-17T05:37:11.725Z,79.00
2023-05-17T05:38:17.952Z,78.80
2023-05-17T05:39:21.438Z,78.40
2023-05-17T05:40:25.457Z,78.00
2023-05-17T05:41:28.447Z,77.80
2023-05-17T05:42:36.328Z,77.40
2023-05-17T05:43:40.409Z,77.10
2023-05-17T05:44:44.587Z,76.90
2023-05-17T05:45:51.095Z,76.50
2023-05-17T05:46:54.826Z,76.10
2023-05-17T05:47:59.370Z,76.00
2023-05-17T05:49:04.151Z,75.60
2023-05-17T05:50:11.320Z,75.10
2023-05-17T05:51:14.944Z,74.60
2023-05-17T05:52:21.116Z,74.50
2023-05-17T05:53:24.389Z,74.20
2023-05-17T05:54:31.714Z,73.80
2023-05-17T05:55:35.096Z,73.50
2023-05-17T05:56:39.198Z,73.40
2023-05-17T05:57:43.494Z,73.10
2023-05-17T05:58:47.692Z,72.40
2023-05-17T05:59:50.897Z,72.00
2023-05-17T06:00:54.861Z,71.60
2023-05-17T06:01:58.093Z,71.40
2023-05-17T06:03:02.216Z,70.90
2023-05-17T06:04:06.783Z,70.20
2023-05-17T06:05:11.453Z,70.10
2023-05-17T06:06:16.881Z,69.80
2023-05-17T06:07:21.126Z,69.50
2023-05-17T06:08:23.992Z,69.20
2023-05-17T06:09:28.119Z,68.80
2023-05-17T06:10:32.537Z,68.60
2023-05-17T06:11:35.529Z,68.30
2023-05-17T06:12:39.698Z,68.30
2023-05-17T06:13:42.658Z,67.80
2023-05-17T06:14:48.731Z,67.50
2023-05-17T06:15:51.744Z,66.90
2023-05-17T06:16:56.015Z,66.40
2023-05-17T06:17:59.250Z,66.60
2023-05-17T06:19:04.928Z,66.50
2023-05-17T06:20:10.969Z,66.80
2023-05-17T06:21:16.438Z,66.70
2023-05-17T06:22:20.805Z,66.90
2023-05-17T06:23:24.794Z,66.50
2023-05-17T06:24:28.992Z,67.00
2023-05-17T06:25:31.992Z,67.40
2023-05-17T06:26:36.908Z,67.40
2023-05-17T06:27:43.036Z,67.40
2023-05-17T06:28:47.163Z,67.00
2023-05-17T06:29:51.236Z,66.20
2023-05-17T06:30:55.161Z,66.00
2023-05-17T06:31:59.882Z,66.20
2023-05-17T06:33:07.769Z,65.60
2023-05-17T06:34:11.162Z,65.30
2023-05-17T06:35:16.707Z,65.60
2023-05-17T06:36:20.628Z,65.50
2023-05-17T06:37:23.439Z,65.70
2023-05-17T06:38:27.719Z,65.20
2023-05-17T06:39:30.629Z,64.10
2023-05-17T06:40:34.704Z,64.30
2023-05-17T06:41:39.030Z,63.90
2023-05-17T06:42:41.940Z,63.70
2023-05-17T06:43:46.348Z,63.90
2023-05-17T06:44:49.040Z,63.60
2023-05-17T06:45:53.293Z,63.90
2023-05-17T06:46:57.136Z,63.50
2023-05-17T06:48:00.013Z,62.90
2023-05-17T06:49:04.412Z,62.40
2023-05-17T06:50:29.436Z,62.50
2023-05-17T06:51:38.014Z,62.70
2023-05-17T06:52:43.198Z,62.50
2023-05-17T06:53:47.143Z,61.70
2023-05-17T06:54:49.986Z,61.60
2023-05-17T06:55:53.822Z,61.60
2023-05-17T06:57:01.512Z,61.60
2023-05-17T06:58:07.401Z,61.50
2023-05-17T06:59:11.290Z,61.50
2023-05-17T07:00:16.021Z,61.90
2023-05-17T07:01:20.603Z,62.30
2023-05-17T07:02:23.961Z,62.80
2023-05-17T07:03:28.260Z,63.40
2023-05-17T07:04:32.847Z,64.30
2023-05-17T07:05:37.563Z,64.30
2023-05-17T07:06:41.517Z,64.80
2023-05-17T07:07:44.388Z,65.30
2023-05-17T07:08:48.740Z,65.40
2023-05-17T07:09:51.446Z,65.00
2023-05-17T07:10:55.344Z,65.10
2023-05-17T07:11:58.227Z,64.30
2023-05-17T07:13:02.388Z,64.00
2023-05-17T07:14:06.249Z,64.10
2023-05-17T07:15:10.747Z,63.60
2023-05-17T07:16:14.617Z,62.80
2023-05-17T07:17:17.690Z,61.80
2023-05-17T07:18:22.378Z,60.90
2023-05-17T07:19:26.724Z,60.40
2023-05-17T07:20:30.953Z,60.50
2023-05-17T07:21:36.310Z,60.30
2023-05-17T07:22:39.647Z,59.80
2023-05-17T07:23:44.258Z,59.10
2023-05-17T07:24:49.778Z,59.60
2023-05-17T07:25:54.803Z,59.60
2023-05-17T07:26:57.731Z,60.00
2023-05-17T07:28:01.701Z,59.60
2023-05-17T07:29:11.539Z,59.40
2023-05-17T07:30:45.357Z,59.80
2023-05-17T07:31:48.827Z,60.00
2023-05-17T07:32:54.972Z,60.60
2023-05-17T07:33:57.972Z,59.30
2023-05-17T07:35:06.803Z,60.10
2023-05-17T07:36:11.660Z,59.30
2023-05-17T07:37:19.151Z,59.50
2023-05-17T07:38:23.786Z,59.30
2023-05-17T07:39:27.756Z,59.40
2023-05-17T07:40:31.930Z,59.10
2023-05-17T07:41:36.258Z,58.90
2023-05-17T07:42:39.367Z,58.10
2023-05-17T07:43:43.986Z,56.80
2023-05-17T07:44:49.006Z,56.60
2023-05-17T07:45:53.478Z,56.10
2023-05-17T07:46:56.296Z,56.00
2023-05-17T07:48:03.498Z,55.70
2023-05-17T07:49:07.608Z,56.50
2023-05-17T07:50:12.327Z,55.60
2023-05-17T07:51:16.067Z,55.10
2023-05-17T07:52:20.423Z,55.40
2023-05-17T07:53:27.071Z,55.90
2023-05-17T07:54:30.804Z,55.20
2023-05-17T07:55:35.804Z,55.30
2023-05-17T07:56:40.229Z,55.80
2023-05-17T07:57:44.064Z,54.90
2023-05-17T07:58:48.321Z,55.00
2023-05-17T07:59:50.953Z,55.00
2023-05-17T08:00:57.946Z,54.90
2023-05-17T08:02:00.912Z,54.10
2023-05-17T08:03:05.005Z,54.50
2023-05-17T08:04:09.276Z,53.70
2023-05-17T08:05:12.500Z,54.20
2023-05-17T08:06:16.995Z,53.90
2023-05-17T08:07:21.762Z,53.40
2023-05-17T08:08:25.835Z,53.20
2023-05-17T08:09:28.813Z,53.00
2023-05-17T08:10:36.486Z,52.70
2023-05-17T08:11:48.141Z,52.50
2023-05-17T08:12:52.011Z,52.10
2023-05-17T08:14:16.009Z,50.70
2023-05-17T08:15:22.410Z,50.10
2023-05-17T08:16:30.030Z,50.00
2023-05-17T08:17:34.371Z,50.30
2023-05-17T08:18:44.159Z,50.20
2023-05-17T08:20:10.926Z,50.40
2023-05-17T08:21:37.587Z,51.00
2023-05-17T08:22:43.256Z,50.80
2023-05-17T08:24:50.429Z,50.30
2023-05-17T08:25:54.826Z,50.20
2023-05-17T08:27:00.499Z,49.60
2023-05-17T08:28:05.009Z,49.70
2023-05-17T08:29:10.203Z,49.40
2023-05-17T08:30:28.197Z,49.00
2023-05-17T08:31:32.573Z,49.30
2023-05-17T08:32:36.490Z,49.10
2023-05-17T08:33:41.094Z,49.00
2023-05-17T08:34:45.293Z,48.80
2023-05-17T08:35:50.492Z,48.60
2023-05-17T08:36:54.959Z,48.30
2023-05-17T08:38:02.752Z,47.70
2023-05-17T08:39:08.544Z,48.00
2023-05-17T08:40:15.031Z,47.60
2023-05-17T08:41:18.101Z,48.00
2023-05-17T08:42:26.658Z,47.30
2023-05-17T08:43:32.185Z,48.00
2023-05-17T08:44:36.992Z,47.70
2023-05-17T08:45:41.579Z,46.90
2023-05-17T08:46:53.356Z,46.50
2023-05-17T08:48:01.767Z,45.40
2023-05-17T08:49:13.029Z,45.40
2023-05-17T08:50:17.668Z,45.30
2023-05-17T08:51:20.974Z,45.50
2023-05-17T08:52:25.228Z,45.70
2023-05-17T08:53:30.898Z,45.70
2023-05-17T08:54:35.936Z,45.00
2023-05-17T08:55:43.686Z,44.00
2023-05-17T08:56:52.434Z,43.60
2023-05-17T08:57:57.122Z,43.30
2023-05-17T08:59:00.477Z,44.30
2023-05-17T09:00:05.781Z,44.40
2023-05-17T09:01:12.345Z,44.50
2023-05-17T09:02:16.534Z,43.70
2023-05-17T09:03:24.162Z,44.50
2023-05-17T09:05:33.268Z,44.70
2023-05-17T09:06:36.447Z,44.90
2023-05-17T09:07:40.238Z,44.80
2023-05-17T09:08:44.767Z,45.80
2023-05-17T09:09:48.946Z,45.30
2023-05-17T09:11:57.696Z,46.50
2023-05-17T09:13:02.127Z,47.20
2023-05-17T09:14:07.261Z,47.20
2023-05-17T09:15:16.783Z,47.60
2023-05-17T09:16:22.206Z,48.20
2023-05-17T09:17:26.465Z,48.70
2023-05-17T09:18:34.157Z,48.80
2023-05-17T09:19:46.935Z,48.70
2023-05-17T09:20:52.854Z,48.80
2023-05-17T09:21:57.874Z,48.50
2023-05-17T09:23:02.188Z,48.50
2023-05-17T09:25:12.949Z,47.70
2023-05-17T09:26:15.836Z,47.20
2023-05-17T09:27:20.351Z,46.70
2023-05-17T09:28:23.707Z,46.70
2023-05-17T09:29:27.796Z,46.70
2023-05-17T09:30:32.630Z,46.50
2023-05-17T09:31:37.075Z,46.70
2023-05-17T09:32:45.501Z,45.60
2023-05-17T09:33:51.853Z,46.00
2023-05-17T09:34:57.553Z,45.00
2023-05-17T09:36:02.407Z,45.30
2023-05-17T09:37:07.116Z,44.90
2023-05-17T09:38:11.924Z,45.00
2023-05-17T09:39:17.833Z,45.40
2023-05-17T09:40:26.453Z,45.00
2023-05-17T09:41:31.014Z,45.30
2023-05-17T09:42:36.950Z,45.10
2023-05-17T09:43:41.323Z,45.40
2023-05-17T09:44:55.092Z,44.90
2023-05-17T09:45:59.129Z,44.80
2023-05-17T09:47:05.021Z,44.70
2023-05-17T09:48:15.658Z,43.90
2023-05-17T09:49:19.946Z,44.00
2023-05-17T09:50:26.108Z,44.40
2023-05-17T09:51:37.925Z,44.50
2023-05-17T09:52:40.868Z,44.20
2023-05-17T09:53:45.101Z,44.40
2023-05-17T09:54:58.292Z,44.10
2023-05-17T09:56:03.162Z,43.70
2023-05-17T09:57:10.435Z,43.50
2023-05-17T09:58:13.604Z,43.50
2023-05-17T09:59:18.185Z,43.90
2023-05-17T10:00:24.270Z,43.90
2023-05-17T10:01:30.101Z,43.60
2023-05-17T10:02:34.405Z,43.50
2023-05-17T10:03:39.537Z,43.40
2023-05-17T10:04:45.021Z,43.20
2023-05-17T10:05:52.254Z,43.30
2023-05-17T10:06:56.976Z,43.70
2023-05-17T10:07:59.891Z,42.00
2023-05-17T10:09:04.829Z,43.20
2023-05-17T10:10:12.338Z,43.60
2023-05-17T10:11:16.575Z,43.70
2023-05-17T10:12:25.792Z,42.80
2023-05-17T10:13:36.128Z,42.90
2023-05-17T10:14:39.953Z,43.20
2023-05-17T10:15:45.554Z,42.70
2023-05-17T10:16:50.174Z,43.20
2023-05-17T10:17:55.273Z,43.20
2023-05-17T10:18:58.529Z,43.40
2023-05-17T10:20:03.215Z,43.70
2023-05-17T10:21:09.182Z,43.60
2023-05-17T10:22:23.396Z,44.20
2023-05-17T10:23:32.647Z,44.00
2023-05-17T10:24:37.644Z,44.20
2023-05-17T10:25:42.385Z,44.30
2023-05-17T10:26:46.766Z,43.80
2023-05-17T10:27:51.179Z,44.40
2023-05-17T10:29:00.969Z,43.30
2023-05-17T10:30:06.791Z,43.00
2023-05-17T10:31:10.838Z,42.80
2023-05-17T10:32:19.491Z,42.80
2023-05-17T10:33:24.310Z,42.70
2023-05-17T10:34:29.186Z,43.10
2023-05-17T10:35:34.608Z,43.30
2023-05-17T10:36:40.499Z,42.90
2023-05-17T10:37:44.476Z,43.10
2023-05-17T10:38:51.174Z,43.30
2023-05-17T10:39:59.532Z,43.50
2023-05-17T10:41:05.637Z,43.20
2023-05-17T10:43:19.291Z,43.30
2023-05-17T10:44:23.192Z,43.50
2023-05-17T10:45:34.194Z,42.80
2023-05-17T10:46:38.969Z,43.40
2023-05-17T10:47:46.491Z,44.10
2023-05-17T10:48:52.885Z,44.00
2023-05-17T10:49:57.188Z,43.50
2023-05-17T10:51:08.668Z,43.10
2023-05-17T10:52:18.583Z,42.40
2023-05-17T10:53:22.655Z,42.40
2023-05-17T10:54:36.450Z,43.10
2023-05-17T10:55:44.307Z,43.80
2023-05-17T10:56:54.214Z,43.40
2023-05-17T10:58:29.856Z,43.40
2023-05-17T10:59:34.036Z,43.20
2023-05-17T11:00:41.732Z,43.80
2023-05-17T11:01:59.873Z,43.80
2023-05-17T11:03:16.860Z,43.50
2023-05-17T11:04:26.164Z,43.90
2023-05-17T11:05:31.201Z,43.90
2023-05-17T11:06:38.485Z,44.10
2023-05-17T11:07:44.045Z,43.80
2023-05-17T11:09:15.385Z,44.30
2023-05-17T11:10:32.921Z,44.10
2023-05-17T11:11:36.517Z,44.60
2023-05-17T11:12:44.895Z,44.30
2023-05-17T11:13:52.904Z,44.60
2023-05-17T11:14:57.561Z,44.00
2023-05-17T11:16:09.584Z,44.10
2023-05-17T11:17:18.649Z,43.40
2023-05-17T11:18:30.812Z,43.80
2023-05-17T11:19:35.530Z,43.70
2023-05-17T11:20:42.383Z,44.20
2023-05-17T11:21:50.322Z,44.00
2023-05-17T11:22:59.031Z,43.90
2023-05-17T11:24:05.570Z,43.70
2023-05-17T11:25:12.025Z,43.70
2023-05-17T11:26:27.372Z,44.30
2023-05-17T11:27:47.356Z,44.30
2023-05-17T11:29:00.720Z,44.70
2023-05-17T11:30:23.054Z,44.50
2023-05-17T11:31:31.457Z,43.60
2023-05-17T11:32:35.335Z,43.80
2023-05-17T11:33:45.618Z,43.70
2023-05-17T11:34:54.270Z,44.10
2023-05-17T11:35:58.270Z,42.90
2023-05-17T11:37:03.197Z,42.80
2023-05-17T11:38:19.472Z,42.90
2023-05-17T11:39:25.690Z,43.20
2023-05-17T11:40:32.213Z,44.00
2023-05-17T11:41:41.588Z,43.40
2023-05-17T11:42:50.688Z,44.20
2023-05-17T11:43:55.505Z,44.20
2023-05-17T11:44:59.251Z,43.40
2023-05-17T11:46:04.226Z,43.40
2023-05-17T11:47:12.965Z,43.30
2023-05-17T11:48:18.775Z,43.80
2023-05-17T11:49:34.946Z,44.00
2023-05-17T11:50:41.802Z,44.00
2023-05-17T11:51:49.596Z,44.60
2023-05-17T11:52:54.598Z,44.10
2023-05-17T11:55:05.322Z,44.10
2023-05-17T11:56:09.297Z,43.90
2023-05-17T11:57:16.821Z,43.70
2023-05-17T11:58:29.178Z,44.10
2023-05-17T11:59:39.626Z,44.00
2023-05-17T12:00:45.136Z,44.10
2023-05-17T12:01:50.838Z,43.90
2023-05-17T12:02:54.193Z,44.20
2023-05-17T12:03:59.834Z,44.10
2023-05-17T12:05:04.472Z,44.30
2023-05-17T12:06:11.749Z,44.50
2023-05-17T12:07:15.796Z,44.40
2023-05-17T12:08:20.496Z,44.50
2023-05-17T12:09:26.251Z,44.60
2023-05-17T12:10:34.613Z,44.60
2023-05-17T12:11:39.535Z,44.30
2023-05-17T12:12:43.354Z,43.90
2023-05-17T12:13:49.151Z,44.70
2023-05-17T12:14:53.352Z,43.70
2023-05-17T12:15:58.693Z,44.10
2023-05-17T12:17:07.370Z,43.90
2023-05-17T12:18:10.413Z,44.40
2023-05-17T12:19:29.959Z,44.00
2023-05-17T12:20:33.411Z,44.40
2023-05-17T12:21:37.826Z,44.50
2023-05-17T12:22:55.256Z,44.00
2023-05-17T12:23:58.489Z,44.40
2023-05-17T12:25:02.369Z,44.30
2023-05-17T12:26:07.977Z,44.70
2023-05-17T12:27:12.067Z,44.60
2023-05-17T12:28:22.783Z,45.30
2023-05-17T12:29:31.738Z,45.10
2023-05-17T12:30:35.310Z,45.10
2023-05-17T12:31:43.604Z,45.00
2023-05-17T12:32:48.124Z,45.00
2023-05-17T12:33:52.993Z,45.20
2023-05-17T12:34:57.810Z,45.40
2023-05-17T12:36:03.041Z,45.40
2023-05-17T12:37:10.982Z,45.10
2023-05-17T12:38:14.395Z,45.40
2023-05-17T12:39:23.710Z,45.00
2023-05-17T12:40:27.044Z,45.20
2023-05-17T12:41:32.548Z,45.00
2023-05-17T12:42:41.019Z,45.10
2023-05-17T12:43:47.628Z,45.20
2023-05-17T12:44:53.303Z,45.10
2023-05-17T12:46:03.864Z,44.60
2023-05-17T12:47:08.690Z,44.60
2023-05-17T12:48:11.905Z,45.00
2023-05-17T12:50:28.787Z,44.50
2023-05-17T12:51:46.329Z,44.90
2023-05-17T12:52:50.818Z,44.50
2023-05-17T12:53:57.386Z,44.70
2023-05-17T12:55:03.541Z,44.40
2023-05-17T12:56:08.218Z,44.60
2023-05-17T12:57:14.187Z,45.10
2023-05-17T12:58:17.411Z,44.50
2023-05-17T12:59:25.623Z,44.80
2023-05-17T13:00:31.916Z,44.70
2023-05-17T13:01:38.302Z,44.60
2023-05-17T13:02:44.396Z,44.50
2023-05-17T13:04:59.951Z,44.40
2023-05-17T13:06:05.791Z,44.50
2023-05-17T13:07:10.732Z,44.80
2023-05-17T13:08:22.794Z,45.30
2023-05-17T13:09:30.870Z,44.40
2023-05-17T13:10:35.379Z,44.90
2023-05-17T13:11:41.521Z,45.10
2023-05-17T13:12:55.715Z,45.30
2023-05-17T13:14:00.024Z,44.70
2023-05-17T13:15:12.301Z,45.50
2023-05-17T13:16:17.157Z,45.50
2023-05-17T13:17:26.463Z,45.10
2023-05-17T13:18:29.708Z,45.40
2023-05-17T13:20:40.174Z,45.50
2023-05-17T13:22:48.803Z,45.20
2023-05-17T13:23:52.786Z,45.10
2023-05-17T13:24:56.208Z,45.80
2023-05-17T13:26:00.467Z,45.80
2023-05-17T13:27:05.217Z,45.20
2023-05-17T13:28:09.280Z,45.10
2023-05-17T13:29:13.483Z,45.50
2023-05-17T13:30:18.157Z,45.40
2023-05-17T13:31:22.364Z,45.60
2023-05-17T13:32:26.946Z,45.70
2023-05-17T13:33:31.497Z,45.30
2023-05-17T13:34:35.756Z,45.50
2023-05-17T13:35:38.851Z,45.60
2023-05-17T13:36:43.237Z,45.50
2023-05-17T13:37:46.261Z,45.30
2023-05-17T13:38:50.543Z,45.40
2023-05-17T13:39:55.391Z,45.60
2023-05-17T13:40:59.556Z,45.80
2023-05-17T13:42:03.610Z,46.10
2023-05-17T13:43:09.935Z,46.00
2023-05-17T13:44:14.159Z,45.70
2023-05-17T13:45:18.548Z,45.80
2023-05-17T13:46:22.922Z,45.70
2023-05-17T13:47:30.134Z,46.00
2023-05-17T13:48:33.524Z,45.90
2023-05-17T13:49:38.010Z,46.10
2023-05-17T13:50:48.075Z,46.00
2023-05-17T13:51:51.371Z,46.10
2023-05-17T13:53:59.645Z,46.20
2023-05-17T13:55:03.136Z,46.30
2023-05-17T13:56:07.999Z,46.80
2023-05-17T13:58:18.012Z,47.00
2023-05-17T14:00:25.396Z,46.70
2023-05-17T14:01:32.163Z,46.60
2023-05-17T14:02:38.036Z,46.90
2023-05-17T14:03:42.198Z,46.90
2023-05-17T14:04:45.693Z,46.80
2023-05-17T14:05:53.004Z,46.90
2023-05-17T14:06:57.397Z,46.60
2023-05-17T14:08:00.500Z,46.70
2023-05-17T14:09:06.941Z,47.00
2023-05-17T14:10:12.786Z,47.00
2023-05-17T14:11:15.914Z,47.30
2023-05-17T14:12:24.457Z,47.40
2023-05-17T14:13:29.707Z,47.50
2023-05-17T14:14:32.784Z,47.90
2023-05-17T14:15:38.636Z,47.90
2023-05-17T14:17:50.268Z,47.30
2023-05-17T14:18:53.561Z,47.60
2023-05-17T14:19:58.313Z,47.60
2023-05-17T14:21:05.372Z,47.80
2023-05-17T14:22:09.056Z,47.60
2023-05-17T14:23:13.082Z,47.90
2023-05-17T14:24:16.164Z,48.00
2023-05-17T14:25:20.363Z,48.10
2023-05-17T14:26:23.676Z,48.30
2023-05-17T14:27:28.062Z,48.40
2023-05-17T14:28:31.397Z,47.80
2023-05-17T14:29:35.601Z,47.90
2023-05-17T14:30:39.897Z,48.10
2023-05-17T14:31:45.793Z,48.40
2023-05-17T14:32:49.805Z,48.50
2023-05-17T14:33:52.943Z,48.60
2023-05-17T14:34:57.142Z,48.60
2023-05-17T14:36:00.656Z,48.90
2023-05-17T14:37:04.860Z,48.90
2023-05-17T14:38:09.178Z,49.20
2023-05-17T14:39:12.284Z,49.20
2023-05-17T14:40:16.049Z,49.10